createdAt,value
2023-04-14T00:00:54.714Z,63.80
2023-04-14T00:02:31.904Z,63.80
2023-04-14T00:04:19.271Z,63.80
2023-04-14T00:05:55.673Z,63.80
2023-04-14T00:07:29.917Z,63.80
2023-04-14T00:09:05.875Z,63.90
2023-04-14T00:10:44.982Z,63.90
2023-04-14T00:12:18.063Z,63.90
2023-04-14T00:14:06.456Z,63.80
2023-04-14T00:15:44.230Z,63.80
2023-04-14T00:17:29.321Z,63.80
2023-04-14T00:19:03.164Z,63.80
2023-04-14T00:20:36.150Z,63.80
2023-04-14T00:22:12.534Z,63.80
2023-04-14T00:23:53.565Z,63.70
2023-04-14T00:25:28.620Z,63.80
2023-04-14T00:27:05.300Z,63.60
2023-04-14T00:28:38.070Z,63.70
2023-04-14T00:30:15.661Z,63.80
2023-04-14T00:31:48.679Z,63.80
2023-04-14T00:33:21.887Z,63.70
2023-04-14T00:34:57.900Z,63.70
2023-04-14T00:36:39.782Z,63.80
2023-04-14T00:38:12.399Z,63.70
2023-04-14T00:39:45.781Z,63.70
2023-04-14T00:41:25.068Z,63.70
2023-04-14T00:43:08.965Z,63.70
2023-04-14T00:44:56.780Z,63.60
2023-04-14T00:46:29.771Z,63.70
2023-04-14T00:48:04.565Z,63.70
2023-04-14T00:49:38.125Z,63.70
2023-04-14T00:51:11.977Z,63.70
2023-04-14T00:52:50.306Z,63.70
2023-04-14T00:54:30.242Z,63.70
2023-04-14T00:56:07.379Z,63.80
2023-04-14T00:57:44.537Z,63.60
2023-04-14T00:59:37.693Z,63.70
2023-04-14T01:01:14.189Z,63.50
2023-04-14T01:02:49.709Z,63.40
2023-04-14T01:04:33.832Z,63.40
2023-04-14T01:06:21.670Z,63.50
2023-04-14T01:07:56.608Z,63.40
2023-04-14T01:09:33.936Z,63.50
2023-04-14T01:11:38.900Z,63.50
2023-04-14T01:13:28.175Z,63.50
2023-04-14T01:15:28.763Z,63.40
2023-04-14T01:17:32.130Z,63.60
2023-04-14T01:19:19.279Z,63.50
2023-04-14T01:21:04.189Z,63.50
2023-04-14T01:22:52.125Z,63.50
2023-04-14T01:24:42.344Z,63.50
2023-04-14T01:26:26.506Z,63.50
2023-04-14T01:28:33.604Z,63.50
2023-04-14T01:30:33.729Z,63.40
2023-04-14T01:32:28.677Z,63.40
2023-04-14T01:34:27.964Z,63.40
2023-04-14T01:36:07.180Z,63.30
2023-04-14T01:37:48.071Z,63.30
2023-04-14T01:39:30.213Z,63.40
2023-04-14T01:41:06.307Z,63.40
2023-04-14T01:42:48.230Z,63.40
2023-04-14T01:44:26.028Z,63.40
2023-04-14T01:46:04.907Z,63.40
2023-04-14T01:47:42.154Z,63.30
2023-04-14T01:49:15.379Z,63.30
2023-04-14T01:50:48.240Z,63.30
2023-04-14T01:52:22.383Z,63.30
2023-04-14T01:53:57.708Z,63.30
2023-04-14T01:55:31.474Z,63.30
2023-04-14T01:57:07.407Z,63.30
2023-04-14T01:58:46.674Z,63.20
2023-04-14T02:00:21.654Z,63.30
2023-04-14T02:02:00.945Z,63.30
2023-04-14T02:03:35.178Z,63.20
2023-04-14T02:05:16.219Z,63.20
2023-04-14T02:06:51.546Z,63.20
2023-04-14T02:08:27.840Z,63.10
2023-04-14T02:10:01.704Z,63.10
2023-04-14T02:11:36.972Z,63.10
2023-04-14T02:13:14.863Z,63.00
2023-04-14T02:14:51.464Z,63.00
2023-04-14T02:16:31.465Z,63.00
2023-04-14T02:18:09.536Z,63.00
2023-04-14T02:19:47.648Z,63.00
2023-04-14T02:21:23.839Z,63.00
2023-04-14T02:23:08.230Z,63.00
2023-04-14T02:24:41.217Z,63.00
2023-04-14T02:26:18.837Z,63.00
2023-04-14T02:28:01.662Z,63.00
2023-04-14T02:29:44.448Z,62.90
2023-04-14T02:31:27.488Z,62.80
2023-04-14T02:33:23.717Z,62.80
2023-04-14T02:35:19.791Z,62.80
2023-04-14T02:37:04.578Z,62.80
2023-04-14T02:38:59.852Z,62.90
2023-04-14T02:40:38.980Z,62.80
2023-04-14T02:42:16.401Z,62.80
2023-04-14T02:44:02.219Z,62.80
2023-04-14T02:45:38.994Z,62.80
2023-04-14T02:47:23.920Z,62.80
2023-04-14T02:48:59.051Z,62.80
2023-04-14T02:50:34.523Z,62.80
2023-04-14T02:52:33.956Z,62.80
2023-04-14T02:54:09.618Z,62.80
2023-04-14T02:55:52.169Z,62.80
2023-04-14T02:57:28.430Z,62.80
2023-04-14T02:59:06.027Z,62.80
2023-04-14T03:00:41.702Z,62.80
2023-04-14T03:02:17.788Z,62.80
2023-04-14T03:04:02.533Z,62.80
2023-04-14T03:05:57.123Z,62.80
2023-04-14T03:07:30.820Z,62.80
2023-04-14T03:09:08.904Z,62.80
2023-04-14T03:10:54.799Z,62.80
2023-04-14T03:12:35.152Z,62.80
2023-04-14T03:14:13.026Z,62.80
2023-04-14T03:15:50.969Z,62.80
2023-04-14T03:17:27.398Z,62.80
2023-04-14T03:19:11.082Z,62.80
2023-04-14T03:20:52.310Z,62.80
2023-04-14T03:22:38.521Z,62.80
2023-04-14T03:24:17.905Z,62.70
2023-04-14T03:25:57.880Z,62.80
2023-04-14T03:27:38.928Z,62.80
2023-04-14T03:29:24.716Z,62.70
2023-04-14T03:31:07.253Z,62.80
2023-04-14T03:32:54.056Z,62.70
2023-04-14T03:34:42.436Z,62.80
2023-04-14T03:36:17.822Z,62.80
2023-04-14T03:37:59.749Z,62.70
2023-04-14T03:39:42.836Z,62.70
2023-04-14T03:41:19.066Z,62.70
2023-04-14T03:42:52.714Z,62.70
2023-04-14T03:44:36.244Z,62.70
2023-04-14T03:46:13.656Z,62.70
2023-04-14T03:47:58.346Z,62.70
2023-04-14T03:49:37.648Z,62.70
2023-04-14T03:51:19.823Z,62.60
2023-04-14T03:52:58.759Z,62.60
2023-04-14T03:54:36.584Z,62.60
2023-04-14T03:56:14.047Z,62.70
2023-04-14T03:57:56.604Z,62.70
2023-04-14T03:59:32.722Z,62.70
2023-04-14T04:01:09.996Z,62.60
2023-04-14T04:02:47.116Z,62.60
2023-04-14T04:04:30.133Z,62.60
2023-04-14T04:06:04.692Z,62.70
2023-04-14T04:07:42.734Z,62.60
2023-04-14T04:09:25.702Z,62.50
2023-04-14T04:11:04.256Z,62.70
2023-04-14T04:12:39.371Z,62.60
2023-04-14T04:14:15.199Z,62.60
2023-04-14T04:15:50.677Z,62.60
2023-04-14T04:17:24.025Z,62.60
2023-04-14T04:18:57.378Z,62.70
2023-04-14T04:20:36.133Z,62.70
2023-04-14T04:22:11.237Z,62.70
2023-04-14T04:23:46.408Z,62.70
2023-04-14T04:25:18.828Z,62.70
2023-04-14T04:26:58.502Z,62.70
2023-04-14T04:28:30.745Z,62.60
2023-04-14T04:30:06.967Z,62.60
2023-04-14T04:31:40.777Z,62.60
2023-04-14T04:33:14.208Z,62.70
2023-04-14T04:34:51.778Z,62.60
2023-04-14T04:36:34.603Z,62.70
2023-04-14T04:38:14.146Z,62.60
2023-04-14T04:40:00.321Z,62.70
2023-04-14T04:41:42.584Z,62.60
2023-04-14T04:43:22.282Z,62.70
2023-04-14T04:45:06.663Z,62.60
2023-04-14T04:46:57.468Z,62.60
2023-04-14T04:48:34.308Z,62.50
2023-04-14T04:50:10.203Z,62.70
2023-04-14T04:51:45.547Z,62.60
2023-04-14T04:53:21.503Z,62.50
2023-04-14T04:54:57.640Z,62.60
2023-04-14T04:56:34.681Z,62.60
2023-04-14T04:58:08.738Z,62.50
2023-04-14T04:59:46.743Z,62.60
2023-04-14T05:01:24.958Z,62.50
2023-04-14T05:03:00.110Z,62.50
2023-04-14T05:04:38.073Z,62.40
2023-04-14T05:06:15.853Z,62.40
2023-04-14T05:07:53.207Z,62.40
2023-04-14T05:09:53.063Z,62.40
2023-04-14T05:11:35.973Z,62.40
2023-04-14T05:13:15.663Z,62.40
2023-04-14T05:14:56.323Z,62.50
2023-04-14T05:16:41.004Z,62.50
2023-04-14T05:18:23.196Z,62.40
2023-04-14T05:20:04.501Z,62.40
2023-04-14T05:21:42.443Z,62.50
2023-04-14T05:23:15.537Z,62.50
2023-04-14T05:24:53.632Z,62.50
2023-04-14T05:26:51.750Z,62.50
2023-04-14T05:28:32.543Z,62.50
2023-04-14T05:30:11.526Z,62.50
2023-04-14T05:31:45.475Z,62.60
2023-04-14T05:33:28.246Z,62.50
2023-04-14T05:35:02.897Z,62.60
2023-04-14T05:36:51.107Z,62.50
2023-04-14T05:38:28.615Z,62.50
2023-04-14T05:40:23.469Z,62.50
2023-04-14T05:42:09.392Z,62.60
2023-04-14T05:43:47.816Z,62.70
2023-04-14T05:45:25.564Z,62.60
2023-04-14T05:47:05.211Z,62.70
2023-04-14T05:48:48.424Z,62.60
2023-04-14T05:50:26.680Z,62.60
2023-04-14T05:52:01.158Z,62.70
2023-04-14T05:53:42.045Z,62.70
2023-04-14T05:55:21.290Z,62.70
2023-04-14T05:56:59.749Z,62.70
2023-04-14T05:58:36.304Z,62.70
2023-04-14T06:00:12.674Z,62.70
2023-04-14T06:01:50.361Z,62.70
2023-04-14T06:03:28.184Z,62.70
2023-04-14T06:05:28.821Z,62.70
2023-04-14T06:07:07.237Z,62.70
2023-04-14T06:08:43.357Z,62.70
2023-04-14T06:10:21.360Z,62.90
2023-04-14T06:12:17.426Z,62.90
2023-04-14T06:13:55.102Z,62.90
2023-04-14T06:15:46.054Z,62.90
2023-04-14T06:17:22.346Z,62.90
2023-04-14T06:19:06.039Z,62.90
2023-04-14T06:20:56.018Z,63.10
2023-04-14T06:22:36.946Z,63.20
2023-04-14T06:24:39.216Z,63.20
2023-04-14T06:26:32.698Z,63.10
2023-04-14T06:28:28.558Z,63.40
2023-04-14T06:30:06.542Z,63.40
2023-04-14T06:31:44.494Z,63.40
2023-04-14T06:33:21.671Z,63.50
2023-04-14T06:35:29.615Z,63.50
2023-04-14T06:37:26.911Z,63.50
2023-04-14T06:39:06.827Z,63.50
2023-04-14T06:40:53.787Z,63.60
2023-04-14T06:42:31.023Z,63.50
2023-04-14T06:44:12.894Z,63.60
2023-04-14T06:45:58.441Z,63.90
2023-04-14T06:47:58.396Z,63.90
2023-04-14T06:49:31.684Z,63.70
2023-04-14T06:51:16.019Z,63.60
2023-04-14T06:52:55.953Z,63.60
2023-04-14T06:54:31.754Z,63.80
2023-04-14T06:56:03.551Z,63.80
2023-04-14T06:57:37.614Z,63.60
2023-04-14T06:59:09.374Z,63.70
2023-04-14T07:00:46.041Z,63.60
2023-04-14T07:02:18.049Z,63.70
2023-04-14T07:03:50.149Z,63.70
2023-04-14T07:05:22.099Z,63.90
2023-04-14T07:06:58.750Z,64.00
2023-04-14T07:08:35.321Z,63.90
2023-04-14T07:10:07.833Z,63.80
2023-04-14T07:11:40.298Z,63.80
2023-04-14T07:13:12.146Z,64.20
2023-04-14T07:14:50.884Z,64.20
2023-04-14T07:16:22.699Z,63.90
2023-04-14T07:17:54.490Z,64.20
2023-04-14T07:19:26.264Z,64.00
2023-04-14T07:21:01.710Z,64.60
2023-04-14T07:22:33.498Z,64.70
2023-04-14T07:24:06.077Z,64.20
2023-04-14T07:25:38.137Z,64.10
2023-04-14T07:27:15.024Z,64.00
2023-04-14T07:28:47.099Z,63.70
2023-04-14T07:30:18.814Z,64.00
2023-04-14T07:31:50.666Z,64.10
2023-04-14T07:33:22.681Z,64.00
2023-04-14T07:34:55.262Z,63.60
2023-04-14T07:36:27.886Z,63.70
2023-04-14T07:37:59.506Z,64.00
2023-04-14T07:39:32.554Z,64.00
2023-04-14T07:41:05.737Z,63.80
2023-04-14T07:42:37.567Z,63.90
2023-04-14T07:44:09.210Z,63.90
2023-04-14T07:45:42.307Z,64.00
2023-04-14T07:47:13.957Z,64.00
2023-04-14T07:48:45.663Z,64.10
2023-04-14T07:50:19.603Z,64.10
2023-04-14T07:51:51.473Z,64.00
2023-04-14T07:53:23.156Z,64.10
2023-04-14T07:54:54.802Z,64.20
2023-04-14T07:56:26.491Z,64.10
2023-04-14T07:57:58.222Z,64.20
2023-04-14T07:59:31.756Z,64.40
2023-04-14T08:01:04.975Z,64.40
2023-04-14T08:02:37.416Z,64.20
2023-04-14T08:04:11.535Z,64.30
2023-04-14T08:05:43.677Z,64.00
2023-04-14T08:07:16.107Z,64.10
2023-04-14T08:08:48.043Z,64.10
2023-04-14T08:10:19.756Z,64.10
2023-04-14T08:11:51.507Z,64.20
2023-04-14T08:13:23.206Z,64.20
2023-04-14T08:14:57.020Z,64.20
2023-04-14T08:16:29.074Z,64.10
2023-04-14T08:18:01.574Z,64.00
2023-04-14T08:19:33.777Z,64.10
2023-04-14T08:21:05.516Z,64.00
2023-04-14T08:22:38.094Z,63.90
2023-04-14T08:24:09.825Z,64.00
2023-04-14T08:25:42.438Z,64.00
2023-04-14T08:27:14.072Z,64.00
2023-04-14T08:28:46.940Z,63.90
2023-04-14T08:30:18.700Z,63.90
2023-04-14T08:31:50.536Z,63.80
2023-04-14T08:33:22.233Z,63.70
2023-04-14T08:35:39.003Z,63.70
2023-04-14T08:36:47.422Z,63.70
2023-04-14T08:38:20.213Z,63.60
2023-04-14T08:39:51.853Z,63.60
2023-04-14T08:41:24.218Z,63.60
2023-04-14T08:42:56.966Z,63.50
2023-04-14T08:44:29.821Z,63.30
2023-04-14T08:46:02.119Z,63.10
2023-04-14T08:47:36.417Z,63.20
2023-04-14T08:49:12.546Z,62.80
2023-04-14T08:50:52.337Z,62.80
2023-04-14T08:52:28.926Z,62.30
2023-04-14T08:54:03.826Z,62.30
2023-04-14T08:55:41.171Z,61.90
2023-04-14T08:57:17.710Z,62.30
2023-04-14T08:58:50.205Z,62.50
2023-04-14T09:00:22.876Z,62.50
2023-04-14T09:01:56.049Z,62.50
2023-04-14T09:03:28.303Z,62.30
2023-04-14T09:05:01.144Z,62.40
2023-04-14T09:06:34.312Z,62.30
2023-04-14T09:08:06.233Z,62.30
2023-04-14T09:09:38.652Z,62.20
2023-04-14T09:11:11.215Z,62.30
2023-04-14T09:12:42.894Z,62.30
2023-04-14T09:14:14.777Z,62.30
2023-04-14T09:15:46.573Z,62.20
2023-04-14T09:17:18.408Z,62.20
2023-04-14T09:18:51.570Z,62.00
2023-04-14T09:20:39.373Z,62.10
2023-04-14T09:22:12.359Z,62.00
2023-04-14T09:23:44.078Z,62.00
2023-04-14T09:25:18.610Z,61.80
2023-04-14T09:26:50.876Z,61.80
2023-04-14T09:28:23.337Z,61.80
2023-04-14T09:29:58.223Z,61.60
2023-04-14T09:31:30.441Z,61.70
2023-04-14T09:33:18.590Z,61.30
2023-04-14T09:34:55.658Z,61.30
2023-04-14T09:36:29.488Z,61.20
2023-04-14T09:38:01.749Z,61.30
2023-04-14T09:39:34.745Z,61.20
2023-04-14T09:41:06.558Z,61.10
2023-04-14T09:42:42.710Z,60.80
2023-04-14T09:44:14.406Z,60.80
2023-04-14T09:45:46.105Z,60.50
2023-04-14T09:47:20.857Z,60.50
2023-04-14T09:48:55.271Z,60.00
2023-04-14T09:50:27.261Z,60.10
2023-04-14T09:52:07.752Z,60.20
2023-04-14T09:53:41.092Z,59.70
2023-04-14T09:55:15.908Z,59.50
2023-04-14T09:56:47.693Z,59.70
2023-04-14T09:58:25.559Z,59.60
2023-04-14T09:59:57.896Z,59.80
2023-04-14T10:01:32.228Z,59.40
2023-04-14T10:03:04.477Z,59.60
2023-04-14T10:04:38.996Z,59.40
2023-04-14T10:06:13.447Z,59.20
2023-04-14T10:07:45.227Z,58.90
2023-04-14T10:09:24.846Z,58.90
2023-04-14T10:10:56.660Z,58.60
2023-04-14T10:12:28.435Z,58.50
2023-04-14T10:14:04.854Z,58.30
2023-04-14T10:15:37.450Z,58.00
2023-04-14T10:17:09.677Z,58.40
2023-04-14T10:18:42.264Z,58.30
2023-04-14T10:20:15.895Z,58.30
2023-04-14T10:21:47.653Z,58.30
2023-04-14T10:23:19.365Z,57.60
2023-04-14T10:24:53.840Z,57.90
2023-04-14T10:26:26.927Z,57.80
2023-04-14T10:27:58.709Z,57.70
2023-04-14T10:29:31.184Z,57.70
2023-04-14T10:31:05.139Z,57.60
2023-04-14T10:32:40.353Z,57.70
2023-04-14T10:34:13.912Z,58.00
2023-04-14T10:35:47.946Z,58.40
2023-04-14T10:37:19.850Z,58.60
2023-04-14T10:38:58.892Z,59.00
2023-04-14T10:40:46.053Z,58.70
2023-04-14T10:42:17.689Z,58.40
2023-04-14T10:43:50.453Z,58.40
2023-04-14T10:45:22.912Z,58.50
2023-04-14T10:46:56.600Z,58.50
2023-04-14T10:48:36.401Z,58.60
2023-04-14T10:50:16.039Z,58.60
2023-04-14T10:51:49.731Z,58.80
2023-04-14T10:53:26.459Z,58.90
2023-04-14T10:55:07.689Z,59.00
2023-04-14T10:56:39.523Z,58.90
2023-04-14T10:58:19.952Z,58.90
2023-04-14T10:59:55.746Z,59.00
2023-04-14T11:01:36.652Z,59.10
2023-04-14T11:03:11.085Z,59.10
2023-04-14T11:05:20.778Z,59.30
2023-04-14T11:06:54.820Z,59.30
2023-04-14T11:08:34.394Z,59.00
2023-04-14T11:10:26.334Z,59.00
2023-04-14T11:12:04.318Z,58.70
2023-04-14T11:13:38.510Z,58.70
2023-04-14T11:15:10.529Z,58.80
2023-04-14T11:16:54.162Z,58.90
2023-04-14T11:18:45.359Z,59.00
2023-04-14T11:20:19.662Z,59.00
2023-04-14T11:21:53.502Z,59.00
2023-04-14T11:23:28.637Z,58.90
2023-04-14T11:25:00.361Z,58.90
2023-04-14T11:26:34.066Z,58.70
2023-04-14T11:28:06.279Z,58.60
2023-04-14T11:29:38.886Z,58.70
2023-04-14T11:31:13.139Z,58.70
2023-04-14T11:32:53.711Z,58.60
2023-04-14T11:34:28.159Z,58.50
2023-04-14T11:36:02.714Z,58.60
2023-04-14T11:37:36.205Z,58.70
2023-04-14T11:39:08.113Z,58.80
2023-04-14T11:40:39.842Z,59.00
2023-04-14T11:42:13.055Z,58.90
2023-04-14T11:43:46.782Z,58.70
2023-04-14T11:45:19.127Z,58.80
2023-04-14T11:46:50.878Z,58.80
2023-04-14T11:48:22.865Z,58.50
2023-04-14T11:49:54.507Z,58.50
2023-04-14T11:51:33.595Z,58.70
2023-04-14T11:53:17.409Z,58.80
2023-04-14T11:54:49.428Z,58.80
2023-04-14T11:56:21.281Z,58.80
2023-04-14T11:57:55.183Z,58.70
2023-04-14T11:59:27.623Z,58.50
2023-04-14T12:00:59.500Z,58.50
2023-04-14T12:02:31.487Z,57.80
2023-04-14T12:04:03.753Z,58.00
2023-04-14T12:05:36.109Z,57.30
2023-04-14T12:07:19.294Z,57.40
2023-04-14T12:08:52.184Z,56.60
2023-04-14T12:10:23.930Z,56.50
2023-04-14T12:11:55.735Z,56.60
2023-04-14T12:13:28.363Z,56.20
2023-04-14T12:15:01.531Z,56.00
2023-04-14T12:16:33.518Z,56.10
2023-04-14T12:18:08.682Z,55.90
2023-04-14T12:19:40.548Z,55.60
2023-04-14T12:21:20.014Z,55.50
2023-04-14T12:23:01.812Z,55.00
2023-04-14T12:24:38.215Z,54.90
2023-04-14T12:26:13.047Z,54.40
2023-04-14T12:27:55.781Z,54.50
2023-04-14T12:29:28.743Z,54.70
2023-04-14T12:31:04.190Z,55.10
2023-04-14T12:32:40.793Z,54.60
2023-04-14T12:34:14.877Z,54.60
2023-04-14T12:35:46.622Z,54.40
2023-04-14T12:37:27.289Z,53.80
2023-04-14T12:39:06.265Z,54.20
2023-04-14T12:40:46.056Z,54.30
2023-04-14T12:42:18.176Z,53.60
2023-04-14T12:43:50.072Z,53.70
2023-04-14T12:45:21.968Z,53.40
2023-04-14T12:46:54.637Z,52.90
2023-04-14T12:48:41.686Z,53.60
2023-04-14T12:50:30.191Z,53.20
2023-04-14T12:52:02.781Z,52.60
2023-04-14T12:53:34.826Z,53.10
2023-04-14T12:55:20.157Z,53.30
2023-04-14T12:56:52.342Z,53.60
2023-04-14T12:58:24.015Z,53.30
2023-04-14T12:59:56.068Z,53.20
2023-04-14T13:01:27.835Z,53.00
2023-04-14T13:02:59.708Z,53.30
2023-04-14T13:04:32.059Z,53.30
2023-04-14T13:06:03.943Z,53.30
2023-04-14T13:07:35.742Z,52.70
2023-04-14T13:09:07.459Z,53.40
2023-04-14T13:10:39.119Z,52.50
2023-04-14T13:12:10.887Z,52.70
2023-04-14T13:13:45.357Z,52.20
2023-04-14T13:16:12.129Z,52.00
2023-04-14T13:17:09.707Z,52.20
2023-04-14T13:18:41.795Z,52.00
2023-04-14T13:20:13.571Z,52.10
2023-04-14T13:21:45.292Z,52.00
2023-04-14T13:23:17.223Z,51.40
2023-04-14T13:24:50.248Z,52.10
2023-04-14T13:26:22.720Z,51.90
2023-04-14T13:27:54.408Z,51.60
2023-04-14T13:29:26.463Z,51.80
2023-04-14T13:30:58.608Z,51.70
2023-04-14T13:32:30.506Z,51.80
2023-04-14T13:34:02.516Z,51.90
2023-04-14T13:35:34.413Z,51.20
2023-04-14T13:37:06.324Z,51.10
2023-04-14T13:38:38.122Z,52.10
2023-04-14T13:40:10.014Z,51.80
2023-04-14T13:41:41.700Z,51.90
2023-04-14T13:43:16.103Z,52.20
2023-04-14T13:44:48.070Z,52.70
2023-04-14T13:46:20.009Z,52.70
2023-04-14T13:47:54.586Z,52.90
2023-04-14T13:49:27.238Z,53.20
2023-04-14T13:50:59.394Z,53.20
2023-04-14T13:52:31.251Z,53.10
2023-04-14T13:54:03.033Z,53.20
2023-04-14T13:55:36.005Z,53.00
2023-04-14T13:57:08.088Z,52.40
2023-04-14T13:58:39.845Z,52.60
2023-04-14T14:00:13.650Z,52.30
2023-04-14T14:01:45.420Z,51.90
2023-04-14T14:03:17.789Z,51.70
2023-04-14T14:04:57.159Z,51.30
2023-04-14T14:06:30.138Z,51.40
2023-04-14T14:08:02.133Z,51.60
2023-04-14T14:09:33.808Z,51.50
2023-04-14T14:11:05.903Z,51.40
2023-04-14T14:12:37.894Z,51.20
2023-04-14T14:14:10.032Z,51.30
2023-04-14T14:15:42.176Z,50.90
2023-04-14T14:17:14.507Z,51.20
2023-04-14T14:18:47.207Z,51.20
2023-04-14T14:22:43.585Z,51.70
2023-04-14T14:24:17.888Z,51.00
2023-04-14T14:25:49.693Z,50.60
2023-04-14T14:27:21.531Z,51.10
2023-04-14T14:28:58.357Z,50.80
2023-04-14T14:30:32.927Z,51.10
2023-04-14T14:32:06.863Z,51.10
2023-04-14T14:33:56.049Z,51.20
2023-04-14T14:35:31.105Z,51.20
2023-04-14T14:37:05.983Z,50.80
2023-04-14T14:38:42.831Z,51.20
2023-04-14T14:40:14.515Z,50.80
2023-04-14T14:41:46.461Z,50.80
2023-04-14T14:43:18.184Z,50.50
2023-04-14T14:44:51.872Z,51.10
2023-04-14T14:46:24.242Z,50.80
2023-04-14T14:48:00.316Z,50.70
2023-04-14T14:49:32.274Z,50.40
2023-04-14T14:51:04.392Z,50.50
2023-04-14T14:52:36.385Z,50.30
2023-04-14T14:54:10.228Z,50.20
2023-04-14T14:55:42.444Z,50.80
2023-04-14T14:57:14.239Z,50.10
2023-04-14T14:58:46.463Z,50.10
2023-04-14T15:00:18.813Z,50.10
2023-04-14T15:01:50.629Z,50.00
2023-04-14T15:03:22.638Z,50.30
2023-04-14T15:04:54.545Z,50.50
2023-04-14T15:06:27.550Z,50.00
2023-04-14T15:08:01.952Z,50.20
2023-04-14T15:09:35.291Z,49.50
2023-04-14T15:11:07.746Z,49.90
2023-04-14T15:12:39.420Z,50.10
2023-04-14T15:14:12.617Z,49.80
2023-04-14T15:15:44.530Z,49.90
2023-04-14T15:17:16.650Z,48.80
2023-04-14T15:18:48.380Z,49.80
2023-04-14T15:20:20.196Z,49.40
2023-04-14T15:21:52.181Z,49.10
2023-04-14T15:23:23.892Z,49.60
2023-04-14T15:24:55.679Z,49.30
2023-04-14T15:26:27.402Z,49.30
2023-04-14T15:28:03.313Z,49.10
2023-04-14T15:29:35.732Z,48.90
2023-04-14T15:31:08.113Z,49.50
2023-04-14T15:32:39.816Z,49.40
2023-04-14T15:34:11.504Z,49.20
2023-04-14T15:35:43.199Z,49.40
2023-04-14T15:37:14.916Z,49.50
2023-04-14T15:38:49.007Z,48.90
2023-04-14T15:40:20.936Z,48.70
2023-04-14T15:41:52.821Z,49.10
2023-04-14T15:43:24.537Z,49.00
2023-04-14T15:44:56.312Z,49.00
2023-04-14T15:46:28.123Z,49.20
2023-04-14T15:47:59.981Z,49.20
2023-04-14T15:49:31.715Z,49.60
2023-04-14T15:51:05.093Z,49.70
2023-04-14T15:52:37.251Z,49.60
2023-04-14T15:54:08.982Z,49.60
2023-04-14T15:55:40.720Z,49.70
2023-04-14T15:57:12.792Z,49.90
2023-04-14T15:58:44.469Z,49.50
2023-04-14T16:00:16.439Z,49.60
2023-04-14T16:01:48.306Z,49.60
2023-04-14T16:03:20.183Z,49.20
2023-04-14T16:04:53.119Z,49.30
2023-04-14T16:06:24.882Z,49.30
2023-04-14T16:07:57.361Z,49.30
2023-04-14T16:09:29.048Z,49.60
2023-04-14T16:11:00.786Z,49.30
2023-04-14T16:12:36.561Z,50.00
2023-04-14T16:14:08.307Z,50.10
2023-04-14T16:15:39.997Z,49.70
2023-04-14T16:17:11.866Z,50.00
2023-04-14T16:18:43.566Z,49.60
2023-04-14T16:20:17.490Z,49.30
2023-04-14T16:21:49.166Z,49.40
2023-04-14T16:23:21.801Z,50.20
2023-04-14T16:24:53.486Z,50.10
2023-04-14T16:26:25.287Z,49.10
2023-04-14T16:27:56.955Z,49.20
2023-04-14T16:29:28.737Z,49.70
2023-04-14T16:31:03.992Z,49.90
2023-04-14T16:32:36.066Z,50.30
2023-04-14T16:34:07.982Z,50.10
2023-04-14T16:35:39.806Z,50.20
2023-04-14T16:37:11.467Z,49.70
2023-04-14T16:38:43.275Z,49.70
2023-04-14T16:40:15.088Z,49.80
2023-04-14T16:41:46.780Z,50.20
2023-04-14T16:43:18.457Z,50.30
2023-04-14T16:44:53.803Z,49.80
2023-04-14T16:46:26.364Z,50.40
2023-04-14T16:47:58.273Z,49.90
2023-04-14T16:49:30.015Z,49.70
2023-04-14T16:51:06.338Z,49.70
2023-04-14T16:52:37.992Z,50.10
2023-04-14T16:54:09.755Z,50.30
2023-04-14T16:55:42.713Z,49.60
2023-04-14T16:57:15.401Z,50.10
2023-04-14T16:58:47.376Z,49.80
2023-04-14T17:00:19.324Z,49.80
2023-04-14T17:01:51.359Z,49.40
2023-04-14T17:03:23.812Z,49.70
2023-04-14T17:04:58.639Z,49.60
2023-04-14T17:06:32.175Z,49.80
2023-04-14T17:08:04.398Z,49.60
2023-04-14T17:09:36.386Z,49.80
2023-04-14T17:11:11.199Z,50.20
2023-04-14T17:12:44.096Z,49.90
2023-04-14T17:14:16.579Z,50.10
2023-04-14T17:15:58.774Z,50.10
2023-04-14T17:17:37.880Z,50.40
2023-04-14T17:19:09.847Z,50.00
2023-04-14T17:20:41.985Z,50.00
2023-04-14T17:22:15.151Z,49.90
2023-04-14T17:23:46.991Z,50.20
2023-04-14T17:25:20.492Z,50.30
2023-04-14T17:26:52.247Z,50.20
2023-04-14T17:28:24.258Z,50.10
2023-04-14T17:29:56.015Z,50.20
2023-04-14T17:31:27.858Z,50.60
2023-04-14T17:33:03.618Z,50.50
2023-04-14T17:34:35.650Z,49.60
2023-04-14T17:36:13.873Z,49.60
2023-04-14T17:37:45.670Z,49.70
2023-04-14T17:39:20.595Z,50.00
2023-04-14T17:40:53.327Z,50.20
2023-04-14T17:42:25.180Z,50.40
2023-04-14T17:43:57.163Z,50.40
2023-04-14T17:45:29.022Z,50.20
2023-04-14T17:47:03.075Z,50.30
2023-04-14T17:48:35.182Z,50.40
2023-04-14T17:50:07.652Z,51.00
2023-04-14T17:51:39.622Z,51.00
2023-04-14T17:53:12.554Z,51.40
2023-04-14T17:54:45.808Z,51.50
2023-04-14T17:56:17.567Z,51.50
2023-04-14T17:57:50.263Z,51.90
2023-04-14T17:59:22.094Z,52.10
2023-04-14T18:00:53.966Z,52.30
2023-04-14T18:02:26.319Z,52.40
2023-04-14T18:04:00.195Z,52.50
2023-04-14T18:05:32.317Z,52.70
2023-04-14T18:07:04.584Z,53.00
2023-04-14T18:08:36.358Z,53.30
2023-04-14T18:10:10.067Z,53.50
2023-04-14T18:11:42.713Z,53.70
2023-04-14T18:13:14.414Z,53.80
2023-04-14T18:14:46.268Z,53.70
2023-04-14T18:16:20.402Z,54.10
2023-04-14T18:17:52.275Z,54.20
2023-04-14T18:19:24.389Z,54.20
2023-04-14T18:20:56.157Z,54.20
2023-04-14T18:22:28.234Z,54.40
2023-04-14T18:28:45.390Z,54.80
2023-04-14T18:30:17.500Z,55.00
2023-04-14T18:31:49.774Z,55.00
2023-04-14T18:33:22.374Z,55.20
2023-04-14T18:34:54.081Z,55.30
2023-04-14T18:36:27.005Z,55.40
2023-04-14T18:37:58.696Z,55.50
2023-04-14T18:39:34.252Z,55.50
2023-04-14T18:41:06.035Z,55.40
2023-04-14T18:42:38.900Z,55.60
2023-04-14T18:44:10.715Z,55.60
2023-04-14T18:45:49.544Z,55.70
2023-04-14T18:47:21.342Z,55.80
2023-04-14T18:48:53.730Z,55.90
2023-04-14T18:50:25.480Z,56.00
2023-04-14T18:51:57.784Z,56.10
2023-04-14T18:53:29.794Z,56.30
2023-04-14T18:55:01.642Z,56.40
2023-04-14T18:56:33.451Z,56.60
2023-04-14T18:58:12.139Z,56.80
2023-04-14T18:59:44.043Z,56.80
2023-04-14T19:01:17.237Z,56.90
2023-04-14T19:02:49.631Z,57.00
2023-04-14T19:04:21.470Z,57.10
2023-04-14T19:05:55.358Z,57.40
2023-04-14T19:07:27.149Z,57.40
2023-04-14T19:09:00.819Z,57.70
2023-04-14T19:10:32.942Z,57.80
2023-04-14T19:12:04.801Z,57.80
2023-04-14T19:13:36.508Z,57.90
2023-04-14T19:15:08.898Z,57.60
2023-04-14T19:16:40.631Z,57.40
2023-04-14T19:18:12.382Z,57.40
2023-04-14T19:19:44.303Z,57.40
2023-04-14T19:21:16.239Z,57.40
2023-04-14T19:22:49.360Z,57.30
2023-04-14T19:24:21.116Z,57.60
2023-04-14T19:25:53.465Z,57.70
2023-04-14T19:27:25.264Z,57.60
2023-04-14T19:28:58.715Z,57.90
2023-04-14T19:30:30.496Z,58.00
2023-04-14T19:32:03.740Z,57.80
2023-04-14T19:33:35.529Z,57.90
2023-04-14T19:35:08.263Z,58.00
2023-04-14T19:36:40.072Z,58.20
2023-04-14T19:38:12.401Z,57.90
2023-04-14T19:39:45.357Z,57.40
2023-04-14T19:41:17.109Z,57.50
2023-04-14T19:42:48.801Z,57.60
2023-04-14T19:44:20.486Z,57.70
2023-04-14T19:45:53.601Z,57.80
2023-04-14T19:47:25.769Z,57.90
2023-04-14T19:48:57.865Z,58.00
2023-04-14T19:50:29.611Z,58.10
2023-04-14T19:52:01.776Z,58.00
2023-04-14T19:53:33.529Z,58.10
2023-04-14T19:55:06.398Z,58.10
2023-04-14T19:56:38.821Z,57.90
2023-04-14T19:58:10.760Z,57.70
2023-04-14T19:59:42.460Z,57.70
2023-04-14T20:01:14.210Z,57.30
2023-04-14T20:02:45.972Z,57.40
2023-04-14T20:04:18.426Z,57.30
2023-04-14T20:05:54.786Z,57.10
2023-04-14T20:07:27.545Z,57.20
2023-04-14T20:08:59.895Z,57.20
2023-04-14T20:10:32.571Z,57.00
2023-04-14T20:12:04.298Z,57.00
2023-04-14T20:13:38.089Z,57.10
2023-04-14T20:15:10.401Z,57.20
2023-04-14T20:16:42.864Z,57.30
2023-04-14T20:18:17.050Z,57.40
2023-04-14T20:19:50.424Z,57.20
2023-04-14T20:21:22.435Z,57.20
2023-04-14T20:22:56.925Z,57.30
2023-04-14T20:24:29.332Z,57.50
2023-04-14T20:26:01.493Z,57.60
2023-04-14T20:27:33.199Z,57.70
2023-04-14T20:29:05.228Z,57.80
2023-04-14T20:30:37.653Z,57.90
2023-04-14T20:32:09.560Z,58.00
2023-04-14T20:33:41.986Z,58.10
2023-04-14T20:35:13.843Z,58.20
2023-04-14T20:36:46.212Z,58.20
2023-04-14T20:38:17.946Z,58.30
2023-04-14T20:39:49.874Z,58.30
2023-04-14T20:41:21.654Z,58.20